createdAt,value
2019-01-18T00:04:41.596Z,-4.21
2019-01-18T00:09:58.256Z,-4.18
2019-01-18T00:12:48.262Z,-4.16
2019-01-18T00:15:17.801Z,-4.14
2019-01-18T00:17:58.221Z,-4.13
2019-01-18T00:20:27.925Z,-4.13
2019-01-18T00:23:17.425Z,-4.11
2019-01-18T00:25:46.984Z,-4.07
2019-01-18T00:28:16.511Z,-4.07
2019-01-18T00:30:50.849Z,-4.06
2019-01-18T00:33:39.407Z,-4.05
2019-01-18T00:39:28.365Z,-4.00
2019-01-18T00:41:57.939Z,-3.97
2019-01-18T00:44:30.228Z,-3.96
2019-01-18T00:47:05.806Z,-3.95
2019-01-18T00:49:40.130Z,-3.96
2019-01-18T00:52:10.124Z,-3.97
2019-01-18T00:54:39.868Z,-3.94
2019-01-18T00:57:09.418Z,-3.91
2019-01-18T00:59:41.096Z,-3.89
2019-01-18T01:02:10.682Z,-3.89
2019-01-18T01:04:40.088Z,-3.87
2019-01-18T01:07:30.064Z,-3.86
2019-01-18T01:10:02.974Z,-3.87
2019-01-18T01:12:34.918Z,-3.86
2019-01-18T01:15:05.700Z,-3.89
2019-01-18T01:17:38.134Z,-3.88
2019-01-18T01:20:17.210Z,-3.88
2019-01-18T01:22:47.115Z,-3.89
2019-01-18T01:25:16.884Z,-3.91
2019-01-18T01:30:26.486Z,-3.91
2019-01-18T01:35:39.996Z,-3.90
2019-01-18T01:38:13.033Z,-3.90
2019-01-18T01:40:42.697Z,-3.88
2019-01-18T01:43:36.203Z,-3.86
2019-01-18T01:49:25.930Z,-3.88
2019-01-18T01:54:50.607Z,-3.90
2019-01-18T02:00:01.915Z,-3.92
2019-01-18T02:02:43.620Z,-3.94
2019-01-18T02:07:48.346Z,-3.99
2019-01-18T02:10:18.408Z,-4.00
2019-01-18T02:13:09.411Z,-4.01
2019-01-18T02:18:28.024Z,-4.04
2019-01-18T02:23:51.429Z,-4.05
2019-01-18T02:26:39.914Z,-4.05
2019-01-18T02:29:09.854Z,-4.04
2019-01-18T02:31:39.872Z,-4.04
2019-01-18T02:34:28.438Z,-4.05
2019-01-18T02:42:41.016Z,-4.00
2019-01-18T02:45:34.563Z,-4.01
2019-01-18T02:48:04.421Z,-4.01
2019-01-18T02:50:39.596Z,-4.02
2019-01-18T02:53:09.300Z,-4.05
2019-01-18T02:55:57.819Z,-4.05
2019-01-18T02:58:46.399Z,-4.04
2019-01-18T03:01:15.940Z,-4.03
2019-01-18T03:06:39.410Z,-4.04
2019-01-18T03:09:33.177Z,-4.04
2019-01-18T03:12:23.011Z,-4.03
2019-01-18T03:15:11.620Z,-4.05
2019-01-18T03:17:41.157Z,-4.06
2019-01-18T03:20:32.101Z,-4.08
2019-01-18T03:23:13.438Z,-4.11
2019-01-18T03:26:00.915Z,-4.10
2019-01-18T03:28:17.850Z,-4.09
2019-01-18T03:30:48.952Z,-4.09
2019-01-18T03:33:18.608Z,-4.08
2019-01-18T03:36:07.257Z,-4.09
2019-01-18T03:38:39.787Z,-4.09
2019-01-18T03:41:28.321Z,-4.09
2019-01-18T03:47:03.037Z,-4.10
2019-01-18T03:49:35.820Z,-4.12
2019-01-18T03:52:05.378Z,-4.14
2019-01-18T03:54:35.261Z,-4.15
2019-01-18T03:57:24.345Z,-4.18
2019-01-18T04:02:55.747Z,-4.16
2019-01-18T04:05:44.201Z,-4.14
2019-01-18T04:08:13.680Z,-4.16
2019-01-18T04:11:25.742Z,-4.15
2019-01-18T04:13:44.936Z,-4.15
2019-01-18T04:16:14.767Z,-4.17
2019-01-18T04:18:47.000Z,-4.19
2019-01-18T04:21:16.589Z,-4.18
2019-01-18T04:26:40.010Z,-4.18
2019-01-18T04:29:28.681Z,-4.19
2019-01-18T04:32:03.981Z,-4.16
2019-01-18T04:34:53.934Z,-4.17
2019-01-18T04:37:23.686Z,-4.17
2019-01-18T04:43:15.278Z,-4.19
2019-01-18T04:45:44.873Z,-4.20
2019-01-18T04:51:05.163Z,-4.22
2019-01-18T04:53:43.981Z,-4.23
2019-01-18T04:58:57.648Z,-4.24
2019-01-18T05:01:38.119Z,-4.25
2019-01-18T05:04:18.502Z,-4.28
2019-01-18T05:09:50.213Z,-4.26
2019-01-18T05:12:31.911Z,-4.25
2019-01-18T05:15:02.303Z,-4.24
2019-01-18T05:17:41.574Z,-4.24
2019-01-18T05:20:11.680Z,-4.24
2019-01-18T05:23:01.050Z,-4.25
2019-01-18T05:25:49.860Z,-4.26
2019-01-18T05:28:21.847Z,-4.26
2019-01-18T05:31:10.363Z,-4.27
2019-01-18T05:33:59.466Z,-4.26
2019-01-18T05:36:29.052Z,-4.25
2019-01-18T05:38:58.578Z,-4.24
2019-01-18T05:41:47.060Z,-4.24
2019-01-18T05:44:16.810Z,-4.22
2019-01-18T05:46:46.315Z,-4.23
2019-01-18T05:49:25.186Z,-4.22
2019-01-18T05:51:54.650Z,-4.24
2019-01-18T05:54:43.197Z,-4.22
2019-01-18T05:57:21.630Z,-4.21
2019-01-18T05:59:51.143Z,-4.18
2019-01-18T06:02:53.875Z,-4.18
2019-01-18T06:05:14.526Z,-4.18
2019-01-18T06:08:03.150Z,-4.17
2019-01-18T06:10:32.885Z,-4.15
2019-01-18T06:13:05.090Z,-4.17
2019-01-18T06:15:53.659Z,-4.15
2019-01-18T06:21:51.482Z,-4.13
2019-01-18T06:24:40.348Z,-4.14
2019-01-18T06:27:15.148Z,-4.11
2019-01-18T06:30:03.841Z,-4.14
2019-01-18T06:32:52.301Z,-4.14
2019-01-18T06:41:03.685Z,-4.19
2019-01-18T06:43:53.392Z,-4.17
2019-01-18T06:49:05.460Z,-4.13
2019-01-18T06:51:55.974Z,-4.12
2019-01-18T06:57:08.470Z,-4.06
2019-01-18T06:59:38.100Z,-4.04
2019-01-18T07:02:46.501Z,-4.04
2019-01-18T07:05:16.639Z,-4.05
2019-01-18T07:07:46.202Z,-4.01
2019-01-18T07:12:51.518Z,-4.00
2019-01-18T07:15:21.146Z,-4.00
2019-01-18T07:17:52.947Z,-3.99
2019-01-18T07:20:22.522Z,-4.00
2019-01-18T07:22:52.090Z,-4.00
2019-01-18T07:25:44.350Z,-4.00
2019-01-18T07:28:25.071Z,-4.01
2019-01-18T07:33:36.101Z,-4.00
2019-01-18T07:36:08.483Z,-3.98
2019-01-18T07:38:52.624Z,-3.96
2019-01-18T07:41:09.428Z,-3.93
2019-01-18T07:43:39.184Z,-3.91
2019-01-18T07:46:08.774Z,-3.89
2019-01-18T07:51:13.407Z,-3.83
2019-01-18T07:53:54.621Z,-3.80
2019-01-18T07:56:24.497Z,-3.77
2019-01-18T07:58:53.996Z,-3.73
2019-01-18T08:09:36.844Z,-3.55
2019-01-18T08:12:18.353Z,-3.45
2019-01-18T08:14:48.241Z,-3.40
2019-01-18T08:17:18.019Z,-3.33
2019-01-18T08:19:47.459Z,-3.28
2019-01-18T08:22:16.946Z,-3.20
2019-01-18T08:27:34.953Z,-3.10
2019-01-18T08:30:24.863Z,-3.06
2019-01-18T08:32:54.431Z,-2.99
2019-01-18T08:35:24.760Z,-2.93
2019-01-18T08:38:14.707Z,-2.87
2019-01-18T08:40:44.711Z,-2.81
2019-01-18T08:43:16.051Z,-2.71
2019-01-18T08:48:29.844Z,-2.57
2019-01-18T08:51:11.322Z,-2.48
2019-01-18T08:56:36.547Z,-2.36
2019-01-18T08:59:05.992Z,-2.25
2019-01-18T09:01:35.979Z,-2.20
2019-01-18T09:04:31.079Z,-2.14
2019-01-18T09:10:08.019Z,-1.98
2019-01-18T09:12:40.282Z,-1.92
2019-01-18T09:15:29.743Z,-1.85
2019-01-18T09:17:59.353Z,-1.79
2019-01-18T09:20:29.761Z,-1.72
2019-01-18T09:22:59.759Z,-1.66
2019-01-18T09:25:31.830Z,-1.60
2019-01-18T09:28:01.867Z,-1.56
2019-01-18T09:30:36.266Z,-1.51
2019-01-18T09:33:08.162Z,-1.46
2019-01-18T09:35:38.394Z,-1.39
2019-01-18T09:38:30.395Z,-1.36
2019-01-18T09:41:24.674Z,-1.32
2019-01-18T09:43:54.630Z,-1.26
2019-01-18T09:46:24.135Z,-1.18
2019-01-18T09:49:32.860Z,-1.13
2019-01-18T09:52:25.036Z,-1.09
2019-01-18T09:55:13.598Z,-0.99
2019-01-18T09:57:46.824Z,-0.92
2019-01-18T10:00:36.403Z,-0.90
2019-01-18T10:03:06.129Z,-0.85
2019-01-18T10:05:54.511Z,-0.79
2019-01-18T10:08:13.910Z,-0.75
2019-01-18T10:10:43.775Z,-0.67
2019-01-18T10:13:13.549Z,-0.63
2019-01-18T10:16:02.489Z,-0.59
2019-01-18T10:18:32.395Z,-0.53
2019-01-18T10:21:04.850Z,-0.49
2019-01-18T10:23:34.618Z,-0.47
2019-01-18T10:26:04.701Z,-0.40
2019-01-18T10:28:37.255Z,-0.34
2019-01-18T10:31:07.007Z,-0.32
2019-01-18T10:33:36.701Z,-0.34
2019-01-18T10:38:56.684Z,-0.31
2019-01-18T10:41:33.999Z,-0.24
2019-01-18T10:44:23.906Z,-0.18
2019-01-18T10:46:53.652Z,-0.13
2019-01-18T10:49:23.294Z,-0.08
2019-01-18T10:51:52.766Z,-0.04
2019-01-18T10:54:25.818Z,0.05
2019-01-18T10:59:32.352Z,0.06
2019-01-18T11:04:52.998Z,0.11
2019-01-18T11:07:43.071Z,0.19
2019-01-18T11:10:12.810Z,0.19
2019-01-18T11:12:47.566Z,0.21
2019-01-18T11:15:37.068Z,0.08
2019-01-18T11:23:36.134Z,-0.28
2019-01-18T11:26:06.156Z,-0.26
2019-01-18T11:28:35.938Z,-0.26
2019-01-18T11:33:56.485Z,-0.28
2019-01-18T11:36:46.315Z,-0.20
2019-01-18T11:39:15.781Z,-0.23
2019-01-18T11:41:45.453Z,-0.29
2019-01-18T11:47:07.153Z,-0.42
2019-01-18T11:49:57.186Z,-0.41
2019-01-18T11:55:22.178Z,-0.41
2019-01-18T11:57:52.297Z,-0.42
2019-01-18T12:00:24.717Z,-0.49
2019-01-18T12:03:03.492Z,-0.51
2019-01-18T12:05:52.223Z,-0.48
2019-01-18T12:08:22.057Z,-0.46
2019-01-18T12:10:54.058Z,-0.41
2019-01-18T12:13:23.658Z,-0.37
2019-01-18T12:15:53.847Z,-0.36
2019-01-18T12:18:43.776Z,-0.31
2019-01-18T12:21:13.337Z,-0.28
2019-01-18T12:23:47.409Z,-0.26
2019-01-18T12:26:17.007Z,-0.26
2019-01-18T12:28:49.026Z,-0.26
2019-01-18T12:36:59.434Z,-0.21
2019-01-18T12:39:29.359Z,-0.23
2019-01-18T12:44:47.808Z,-0.24
2019-01-18T12:47:17.344Z,-0.21
2019-01-18T12:49:47.106Z,-0.21
2019-01-18T12:52:35.613Z,-0.17
2019-01-18T12:55:24.282Z,-0.17
2019-01-18T12:57:54.451Z,-0.17
2019-01-18T13:00:43.022Z,-0.17
2019-01-18T13:03:12.649Z,-0.18
2019-01-18T13:05:54.711Z,-0.15
2019-01-18T13:08:24.632Z,-0.16
2019-01-18T13:10:54.292Z,-0.14
2019-01-18T13:13:23.780Z,-0.13
2019-01-18T13:16:14.685Z,-0.11
2019-01-18T13:18:46.690Z,-0.12
2019-01-18T13:21:16.259Z,-0.14
2019-01-18T13:26:21.100Z,-0.13
2019-01-18T13:29:02.340Z,-0.14
2019-01-18T13:31:32.520Z,-0.16
2019-01-18T13:34:21.341Z,-0.16
2019-01-18T13:39:48.344Z,-0.18
2019-01-18T13:42:19.707Z,-0.20
2019-01-18T13:44:49.288Z,-0.21
2019-01-18T13:47:20.055Z,-0.23
2019-01-18T13:52:51.628Z,-0.26
2019-01-18T13:55:25.892Z,-0.27
2019-01-18T13:58:15.827Z,-0.30
2019-01-18T14:00:45.812Z,-0.31
2019-01-18T14:06:04.481Z,-0.38
2019-01-18T14:08:34.125Z,-0.42
2019-01-18T14:16:49.720Z,-0.48
2019-01-18T14:19:38.619Z,-0.54
2019-01-18T14:22:08.361Z,-0.58
2019-01-18T14:24:38.003Z,-0.61
2019-01-18T14:27:26.438Z,-0.64
2019-01-18T14:29:56.342Z,-0.66
2019-01-18T14:32:25.911Z,-0.70
2019-01-18T14:34:55.791Z,-0.76
2019-01-18T14:37:25.302Z,-0.80
2019-01-18T14:40:15.230Z,-0.82
2019-01-18T14:42:45.371Z,-0.85
2019-01-18T14:50:51.658Z,-0.93
2019-01-18T14:53:21.120Z,-0.96
2019-01-18T14:55:50.641Z,-0.98
2019-01-18T14:58:24.561Z,-0.99
2019-01-18T15:01:04.716Z,-1.01
2019-01-18T15:03:34.421Z,-1.04
2019-01-18T15:06:07.320Z,-1.05
2019-01-18T15:08:37.008Z,-1.09
2019-01-18T15:13:42.052Z,-1.14
2019-01-18T15:16:11.837Z,-1.17
2019-01-18T15:18:41.318Z,-1.20
2019-01-18T15:21:31.401Z,-1.22
2019-01-18T15:24:22.149Z,-1.25
2019-01-18T15:26:51.807Z,-1.25
2019-01-18T15:29:21.922Z,-1.28
2019-01-18T15:31:51.383Z,-1.30
2019-01-18T15:34:20.982Z,-1.32
2019-01-18T15:36:50.631Z,-1.34
2019-01-18T15:39:38.960Z,-1.37
2019-01-18T15:44:50.387Z,-1.41
2019-01-18T15:47:20.525Z,-1.42
2019-01-18T15:49:50.386Z,-1.42
2019-01-18T15:52:26.085Z,-1.42
2019-01-18T15:55:16.957Z,-1.42
2019-01-18T16:00:24.901Z,-1.45
2019-01-18T16:03:16.184Z,-1.46
2019-01-18T16:05:45.273Z,-1.47
2019-01-18T16:08:15.019Z,-1.47
2019-01-18T16:10:52.432Z,-1.50
2019-01-18T16:13:39.478Z,-1.52
2019-01-18T16:16:37.945Z,-1.53
2019-01-18T16:21:57.759Z,-1.57
2019-01-18T16:24:27.377Z,-1.59
2019-01-18T16:26:56.874Z,-1.60
2019-01-18T16:29:26.436Z,-1.63
2019-01-18T16:31:56.130Z,-1.66
2019-01-18T16:34:25.569Z,-1.69
2019-01-18T16:36:55.086Z,-1.67
2019-01-18T16:39:28.204Z,-1.66
2019-01-18T16:41:57.675Z,-1.65
2019-01-18T16:44:28.248Z,-1.65
2019-01-18T16:46:57.704Z,-1.63
2019-01-18T16:49:46.313Z,-1.62
2019-01-18T16:52:15.967Z,-1.63
2019-01-18T16:54:45.501Z,-1.61
2019-01-18T16:57:19.143Z,-1.60
2019-01-18T16:59:48.313Z,-1.65
2019-01-18T17:02:17.808Z,-1.60
2019-01-18T17:04:47.526Z,-1.59
2019-01-18T17:07:17.443Z,-1.58
2019-01-18T17:09:47.207Z,-1.62
2019-01-18T17:12:16.827Z,-1.65
2019-01-18T17:14:47.769Z,-1.69
2019-01-18T17:17:19.696Z,-1.74
2019-01-18T17:22:24.622Z,-1.80
2019-01-18T17:25:05.680Z,-1.81
2019-01-18T17:27:35.963Z,-1.82
2019-01-18T17:30:07.215Z,-1.80
2019-01-18T17:32:40.582Z,-1.81
2019-01-18T17:35:16.458Z,-1.82
2019-01-18T17:38:07.621Z,-1.82
2019-01-18T17:40:55.501Z,-1.84
2019-01-18T17:44:03.065Z,-1.84
2019-01-18T17:47:05.304Z,-1.86
2019-01-18T17:49:53.268Z,-1.86
2019-01-18T17:53:06.968Z,-1.89
2019-01-18T17:56:14.508Z,-1.91
2019-01-18T17:59:14.292Z,-1.94
2019-01-18T18:02:09.308Z,-1.94
2019-01-18T18:05:19.483Z,-1.98
2019-01-18T18:08:26.991Z,-2.04
2019-01-18T18:11:49.475Z,-2.09
2019-01-18T18:14:57.075Z,-2.13
2019-01-18T18:18:04.471Z,-2.18
2019-01-18T18:20:57.116Z,-2.22
2019-01-18T18:23:53.964Z,-2.26
2019-01-18T18:27:04.097Z,-2.30
2019-01-18T18:30:11.519Z,-2.38
2019-01-18T18:33:19.027Z,-2.41
2019-01-18T18:39:45.344Z,-2.48
2019-01-18T18:42:52.715Z,-2.52
2019-01-18T18:46:17.590Z,-2.56
2019-01-18T18:49:12.327Z,-2.58
2019-01-18T18:52:19.819Z,-2.65
2019-01-18T18:55:27.239Z,-2.67
2019-01-18T18:58:28.255Z,-2.71
2019-01-18T19:01:30.591Z,-2.73
2019-01-18T19:04:37.898Z,-2.76
2019-01-18T19:07:54.454Z,-2.78
2019-01-18T19:10:51.646Z,-2.80
2019-01-18T19:14:00.360Z,-2.83
2019-01-18T19:17:07.865Z,-2.88
2019-01-18T19:20:10.378Z,-2.91
2019-01-18T19:23:02.266Z,-2.99
2019-01-18T19:29:34.017Z,-3.11
2019-01-18T19:35:08.724Z,-3.10
2019-01-18T19:38:10.742Z,-3.10
2019-01-18T19:41:18.857Z,-3.11
2019-01-18T19:44:14.777Z,-3.16
2019-01-18T19:47:34.402Z,-3.16
2019-01-18T19:50:16.104Z,-3.21
2019-01-18T19:53:24.085Z,-3.19
2019-01-18T19:56:35.092Z,-3.18
2019-01-18T19:59:28.796Z,-3.17
2019-01-18T20:02:30.102Z,-3.16
2019-01-18T20:05:11.006Z,-3.15
2019-01-18T20:08:05.524Z,-3.13
2019-01-18T20:11:11.574Z,-3.12
2019-01-18T20:14:19.079Z,-3.11
2019-01-18T20:17:16.111Z,-3.11
2019-01-18T20:20:09.402Z,-3.12
2019-01-18T20:23:18.168Z,-3.16
2019-01-18T20:26:08.152Z,-3.18
2019-01-18T20:32:32.173Z,-3.16
2019-01-18T20:35:39.594Z,-3.14
2019-01-18T20:38:47.179Z,-3.11
2019-01-18T20:41:42.513Z,-3.09
2019-01-18T20:44:51.974Z,-3.07
2019-01-18T20:50:32.320Z,-3.09
2019-01-18T20:57:01.266Z,-3.17
2019-01-18T21:00:11.622Z,-3.21
2019-01-18T21:06:05.334Z,-3.29
2019-01-18T21:12:08.562Z,-3.39
2019-01-18T21:15:16.566Z,-3.43
2019-01-18T21:18:19.229Z,-3.57
2019-01-18T21:21:29.712Z,-3.69
2019-01-18T21:27:26.535Z,-3.74
2019-01-18T21:30:34.353Z,-3.75
2019-01-18T21:33:02.591Z,-3.78
2019-01-18T21:36:10.204Z,-3.78
2019-01-18T21:39:15.735Z,-3.78
2019-01-18T21:42:21.790Z,-3.78
2019-01-18T21:45:03.219Z,-3.79
2019-01-18T21:48:11.282Z,-3.83
2019-01-18T21:51:21.361Z,-3.85
2019-01-18T21:54:40.882Z,-3.89
2019-01-18T21:57:48.336Z,-3.90
2019-01-18T22:01:02.015Z,-3.92
2019-01-18T22:03:57.036Z,-3.92
2019-01-18T22:07:04.475Z,-3.93
2019-01-18T22:09:58.381Z,-3.96
2019-01-18T22:13:05.904Z,-3.95
2019-01-18T22:16:13.489Z,-3.96
2019-01-18T22:19:22.342Z,-3.96
2019-01-18T22:22:29.816Z,-4.00
2019-01-18T22:28:56.990Z,-3.98
2019-01-18T22:32:05.546Z,-3.95
2019-01-18T22:34:47.910Z,-3.92
2019-01-18T22:37:55.622Z,-3.90
2019-01-18T22:41:03.567Z,-3.90
2019-01-18T22:43:55.015Z,-3.83
2019-01-18T22:47:02.549Z,-3.83
2019-01-18T22:53:22.189Z,-3.81
2019-01-18T22:56:18.216Z,-3.78
2019-01-18T22:59:26.071Z,-3.79
2019-01-18T23:02:19.497Z,-3.81
2019-01-18T23:05:26.941Z,-3.80
2019-01-18T23:11:46.286Z,-3.75
2019-01-18T23:15:03.118Z,-3.74
2019-01-18T23:18:10.835Z,-3.72
2019-01-18T23:21:18.197Z,-3.69
2019-01-18T23:24:43.382Z,-3.67
2019-01-18T23:27:38.430Z,-3.64
2019-01-18T23:30:30.459Z,-3.64
2019-01-18T23:33:38.074Z,-3.65
2019-01-18T23:36:52.710Z,-3.67
2019-01-18T23:43:19.583Z,-3.72
2019-01-18T23:46:26.964Z,-3.76
2019-01-18T23:49:18.550Z,-3.78
2019-01-18T23:52:32.113Z,-3.81
2019-01-18T23:55:39.855Z,-3.81
2019-01-18T23:58:53.072Z,-3.84
